Time;durP1;ratioP1;P1;durP2;ratioP2;P2;SDS_P1;SDS_P2;PMS_P1;PMS_P2;Temp;Humidity;BMP_temperature;BMP_pressure;BME280_temperature;BME280_humidity;BME280_pressure;Samples;Min_cycle;Max_cycle;Signal;HPM_P1;HPM_P2
2023/08/16 00:00:25;;;;;;;9.07;8.27;;;21.50;99.90;;;;;;5137469;27;20208;-77
2023/08/16 00:02:51;;;;;;;9.07;8.17;;;21.50;99.90;;;;;;5138787;27;20183;-77
2023/08/16 00:05:17;;;;;;;8.90;8.10;;;21.50;99.90;;;;;;5136863;27;20177;-78
2023/08/16 00:07:43;;;;;;;9.37;8.57;;;21.50;99.90;;;;;;5145415;27;20203;-79
2023/08/16 00:10:12;;;;;;;8.80;7.90;;;21.60;99.90;;;;;;5152412;27;20191;-78
2023/08/16 00:12:38;;;;;;;8.67;7.97;;;21.50;99.90;;;;;;5143374;27;20170;-76
2023/08/16 00:15:06;;;;;;;8.37;7.77;;;21.50;99.90;;;;;;5138344;27;20620;-77
2023/08/16 00:17:32;;;;;;;9.03;8.33;;;21.50;99.90;;;;;;5135711;27;20173;-79
2023/08/16 00:19:58;;;;;;;9.30;8.50;;;21.40;99.90;;;;;;5156442;27;20200;-77
2023/08/16 00:22:24;;;;;;;9.10;8.33;;;21.40;99.90;;;;;;5141265;27;20196;-76
2023/08/16 00:24:51;;;;;;;8.50;7.80;;;21.40;99.90;;;;;;5136943;27;20173;-77
2023/08/16 00:27:17;;;;;;;8.93;8.23;;;21.40;99.90;;;;;;5137127;27;20805;-77
2023/08/16 00:29:42;;;;;;;8.87;8.13;;;21.40;99.90;;;;;;5136538;27;20196;-78
2023/08/16 00:32:10;;;;;;;9.23;8.30;;;21.50;99.90;;;;;;5136477;27;20209;-80
2023/08/16 00:34:36;;;;;;;8.63;7.83;;;21.50;99.90;;;;;;5136758;27;20214;-79
2023/08/16 00:37:02;;;;;;;8.60;7.80;;;21.50;99.90;;;;;;5135507;27;20177;-79
2023/08/16 00:39:28;;;;;;;8.77;8.00;;;21.60;99.90;;;;;;5136452;27;20292;-77
2023/08/16 00:41:53;;;;;;;9.40;8.70;;;21.60;99.90;;;;;;5136255;27;20199;-77
2023/08/16 00:44:19;;;;;;;9.07;7.97;;;21.60;99.90;;;;;;5136601;27;20180;-77
2023/08/16 00:46:45;;;;;;;9.53;7.50;;;21.60;99.90;;;;;;5136204;27;20173;-77
2023/08/16 00:49:11;;;;;;;8.70;7.87;;;21.60;99.90;;;;;;5134883;27;20229;-79
2023/08/16 00:51:37;;;;;;;8.97;8.27;;;21.60;99.90;;;;;;5136039;27;20295;-80
2023/08/16 00:54:04;;;;;;;8.93;8.13;;;21.60;99.90;;;;;;5136501;27;20210;-78
2023/08/16 00:56:30;;;;;;;9.47;8.63;;;21.50;99.90;;;;;;5136495;27;20228;-80
2023/08/16 00:58:57;;;;;;;9.73;8.73;;;21.50;99.90;;;;;;5151497;27;20201;-79
2023/08/16 01:01:22;;;;;;;8.73;7.93;;;21.60;99.90;;;;;;5141718;27;20201;-78
2023/08/16 01:03:49;;;;;;;9.20;8.50;;;21.50;99.90;;;;;;5137176;27;20208;-78
2023/08/16 01:06:15;;;;;;;9.70;8.40;;;21.00;99.90;;;;;;5144828;27;20181;-78
2023/08/16 01:08:41;;;;;;;9.03;8.07;;;21.50;99.90;;;;;;5136103;27;20667;-77
2023/08/16 01:11:15;;;;;;;8.53;7.60;;;21.50;99.90;;;;;;5135601;27;20264;-77
2023/08/16 01:14:12;;;;;;;9.27;8.47;;;21.60;99.90;;;;;;5135804;27;20218;-77
2023/08/16 01:16:39;;;;;;;8.93;8.13;;;21.90;99.90;;;;;;5135652;27;20176;-76
2023/08/16 01:19:10;;;;;;;8.57;7.70;;;21.90;99.90;;;;;;5134319;27;20237;-79
2023/08/16 01:21:46;;;;;;;8.53;7.90;;;21.60;99.90;;;;;;5135598;27;20165;-77
2023/08/16 01:24:27;;;;;;;10.67;8.80;;;21.60;99.90;;;;;;5135476;27;20243;-76
2023/08/16 01:26:54;;;;;;;9.63;8.60;;;21.60;99.90;;;;;;5135048;27;20167;-75
2023/08/16 01:29:20;;;;;;;8.63;7.80;;;21.60;99.90;;;;;;5136414;27;20165;-78
2023/08/16 01:31:46;;;;;;;8.23;7.57;;;21.70;99.90;;;;;;5136155;27;20225;-78
2023/08/16 01:34:12;;;;;;;8.30;7.70;;;21.60;99.90;;;;;;5135480;27;20173;-79
2023/08/16 01:36:38;;;;;;;8.93;8.03;;;21.60;99.90;;;;;;5135143;27;20165;-78
2023/08/16 01:39:04;;;;;;;8.87;8.00;;;21.60;99.90;;;;;;5135304;27;20197;-80
2023/08/16 01:41:50;;;;;;;9.23;7.90;;;21.60;99.90;;;;;;5136110;27;20200;-80
2023/08/16 01:44:18;;;;;;;8.73;7.80;;;21.60;99.90;;;;;;5145494;27;20180;-78
2023/08/16 01:46:45;;;;;;;8.67;7.87;;;21.60;99.90;;;;;;5144194;27;20628;-81
2023/08/16 01:49:12;;;;;;;9.20;8.47;;;21.60;99.90;;;;;;5139406;27;20215;-77
2023/08/16 01:51:38;;;;;;;9.03;8.33;;;21.60;99.90;;;;;;5138229;27;20161;-76
2023/08/16 01:54:05;;;;;;;9.63;8.60;;;21.50;99.90;;;;;;5137574;27;20180;-76
2023/08/16 01:56:30;;;;;;;9.27;8.37;;;21.50;99.90;;;;;;5156669;27;20201;-77
2023/08/16 01:58:56;;;;;;;8.63;8.00;;;21.50;99.90;;;;;;5138276;27;20250;-80
2023/08/16 02:01:22;;;;;;;10.53;8.00;;;21.50;99.90;;;;;;5135115;27;20177;-78
2023/08/16 02:03:48;;;;;;;9.00;8.30;;;21.50;99.90;;;;;;5134864;27;20165;-78
2023/08/16 02:06:14;;;;;;;8.97;8.27;;;21.50;99.90;;;;;;5134844;27;20255;-79
2023/08/16 02:08:40;;;;;;;9.80;8.10;;;21.50;99.90;;;;;;5135205;27;20527;-81
2023/08/16 02:11:05;;;;;;;8.93;8.23;;;21.60;99.90;;;;;;5136839;27;20173;-79
2023/08/16 02:13:31;;;;;;;9.17;8.27;;;21.70;99.90;;;;;;5134936;27;20169;-78
2023/08/16 02:16:03;;;;;;;8.90;8.10;;;21.60;99.90;;;;;;5134652;27;20183;-79
2023/08/16 02:18:30;;;;;;;8.53;7.93;;;21.60;99.90;;;;;;5133730;27;20177;-77
2023/08/16 02:20:56;;;;;;;9.20;8.50;;;21.60;99.90;;;;;;5133730;27;20234;-79
2023/08/16 02:23:22;;;;;;;8.93;8.20;;;21.50;99.90;;;;;;5135087;27;20173;-78
2023/08/16 02:25:48;;;;;;;9.17;8.37;;;21.50;99.90;;;;;;5143449;27;20294;-77
2023/08/16 02:28:13;;;;;;;10.13;8.60;;;21.50;99.90;;;;;;5138529;27;20169;-78
2023/08/16 02:30:39;;;;;;;8.90;8.20;;;21.40;99.90;;;;;;5134626;27;20252;-79
2023/08/16 02:33:05;;;;;;;9.20;8.40;;;21.50;99.90;;;;;;5115700;27;20181;-80
2023/08/16 02:35:31;;;;;;;9.20;8.40;;;21.40;99.90;;;;;;5134611;27;20172;-76
2023/08/16 02:37:57;;;;;;;9.23;8.53;;;21.40;99.90;;;;;;5134502;27;20177;-74
2023/08/16 02:40:23;;;;;;;9.90;9.10;;;21.40;99.90;;;;;;5140424;27;20220;-77
2023/08/16 02:42:50;;;;;;;9.17;8.27;;;21.40;99.90;;;;;;5151677;27;20207;-78
2023/08/16 02:45:17;;;;;;;9.10;8.47;;;21.40;99.90;;;;;;5132954;28;20184;-79
2023/08/16 02:47:43;;;;;;;8.80;8.17;;;21.50;99.90;;;;;;5134199;27;20181;-79
2023/08/16 02:50:09;;;;;;;8.50;7.80;;;21.50;99.90;;;;;;5134124;27;20185;-78
2023/08/16 02:52:35;;;;;;;9.87;9.07;;;21.50;99.90;;;;;;5134318;27;20174;-79
2023/08/16 02:55:01;;;;;;;8.87;8.17;;;21.40;99.90;;;;;;5133807;27;20169;-78
2023/08/16 02:57:27;;;;;;;9.17;8.33;;;21.40;99.90;;;;;;5134138;27;20240;-77
2023/08/16 02:59:54;;;;;;;10.87;8.80;;;21.30;99.90;;;;;;5135974;27;20327;-75
2023/08/16 03:02:20;;;;;;;8.83;8.13;;;21.40;99.90;;;;;;5138043;27;20173;-79
2023/08/16 03:04:46;;;;;;;9.17;8.37;;;21.40;99.90;;;;;;5137879;27;20565;-77
2023/08/16 03:07:12;;;;;;;9.67;8.77;;;21.40;99.90;;;;;;5137938;27;20165;-79
2023/08/16 03:09:38;;;;;;;9.50;8.77;;;21.40;99.90;;;;;;5138163;27;20165;-79
2023/08/16 03:12:05;;;;;;;9.63;8.87;;;21.40;99.90;;;;;;5137982;27;20173;-78
2023/08/16 03:14:31;;;;;;;8.80;8.00;;;21.30;99.90;;;;;;5137756;27;20175;-79
2023/08/16 03:16:57;;;;;;;9.50;8.60;;;21.30;99.90;;;;;;5137629;27;20551;-79
2023/08/16 03:19:24;;;;;;;11.40;9.03;;;21.20;99.90;;;;;;5139864;27;20726;-77
2023/08/16 03:21:50;;;;;;;9.47;8.77;;;21.20;99.90;;;;;;5157647;27;20276;-80
2023/08/16 03:24:17;;;;;;;9.37;8.60;;;21.20;99.90;;;;;;5138119;27;20211;-80
2023/08/16 03:26:43;;;;;;;9.27;8.47;;;21.20;99.90;;;;;;5136607;27;20193;-80
2023/08/16 03:29:08;;;;;;;9.47;8.67;;;21.20;99.90;;;;;;5137969;27;20704;-82
2023/08/16 03:31:34;;;;;;;9.57;8.67;;;21.20;99.90;;;;;;5149138;27;20161;-79
2023/08/16 03:34:00;;;;;;;9.20;8.50;;;21.20;99.90;;;;;;5152266;27;20174;-77
2023/08/16 03:36:26;;;;;;;10.20;8.57;;;21.10;99.90;;;;;;5136975;27;20173;-79
2023/08/16 03:38:51;;;;;;;9.60;8.90;;;21.10;99.90;;;;;;5138384;27;20579;-78
2023/08/16 03:41:17;;;;;;;10.77;8.93;;;21.00;99.90;;;;;;5139507;27;20192;-80
2023/08/16 03:43:43;;;;;;;10.10;9.10;;;21.00;99.90;;;;;;5140965;27;20173;-79
2023/08/16 03:46:08;;;;;;;10.63;9.60;;;21.00;99.90;;;;;;5142274;27;20178;-80
2023/08/16 03:48:34;;;;;;;10.17;9.17;;;21.00;99.90;;;;;;5151607;27;20181;-80
2023/08/16 03:51:00;;;;;;;10.20;9.30;;;20.90;99.90;;;;;;5140553;27;20173;-80
2023/08/16 03:53:26;;;;;;;10.23;9.33;;;20.90;99.90;;;;;;5140517;27;20177;-79
2023/08/16 03:55:56;;;;;;;10.47;9.40;;;20.90;99.90;;;;;;5138387;27;20710;-79
2023/08/16 03:58:23;;;;;;;9.23;8.53;;;20.90;99.90;;;;;;5137923;27;20173;-78
2023/08/16 04:00:50;;;;;;;9.40;8.60;;;20.90;99.90;;;;;;5137344;27;20259;-78
2023/08/16 04:03:16;;;;;;;10.03;9.13;;;20.90;99.90;;;;;;5136932;27;20173;-78
2023/08/16 04:05:42;;;;;;;10.93;8.87;;;20.90;99.90;;;;;;5137516;27;20176;-79
2023/08/16 04:08:08;;;;;;;10.00;9.10;;;20.90;99.90;;;;;;5137676;27;20194;-78
2023/08/16 04:10:33;;;;;;;9.77;8.97;;;20.90;99.90;;;;;;5136221;27;20177;-78
2023/08/16 04:12:59;;;;;;;10.57;9.70;;;20.90;99.90;;;;;;5136878;27;20173;-79
2023/08/16 04:15:25;;;;;;;11.27;10.10;;;20.90;99.90;;;;;;5136428;27;20536;-78
2023/08/16 04:17:51;;;;;;;11.33;10.23;;;20.90;99.90;;;;;;5136860;27;20169;-80
2023/08/16 04:20:17;;;;;;;11.87;10.63;;;20.90;99.90;;;;;;5135592;27;20228;-79
2023/08/16 04:22:42;;;;;;;10.70;9.70;;;21.00;99.90;;;;;;5143589;27;20177;-75
2023/08/16 04:25:09;;;;;;;10.23;9.33;;;20.90;99.90;;;;;;5146523;27;20181;-77
2023/08/16 04:27:35;;;;;;;10.27;9.23;;;20.90;99.90;;;;;;5136500;27;20653;-78
2023/08/16 04:30:01;;;;;;;10.60;9.70;;;20.90;99.90;;;;;;5136642;27;20168;-75
2023/08/16 04:32:26;;;;;;;10.53;9.53;;;20.90;99.90;;;;;;5136314;27;20177;-76
2023/08/16 04:34:52;;;;;;;10.20;9.30;;;21.00;99.90;;;;;;5136184;27;20244;-82
2023/08/16 04:37:18;;;;;;;10.07;9.07;;;21.00;99.90;;;;;;5136395;27;20181;-79
2023/08/16 04:39:44;;;;;;;10.90;9.90;;;21.00;99.90;;;;;;5136351;27;20215;-80
2023/08/16 04:42:10;;;;;;;11.27;9.47;;;21.10;99.90;;;;;;5136484;27;20161;-79
2023/08/16 04:44:35;;;;;;;10.27;9.47;;;21.10;99.90;;;;;;5136131;27;20238;-79
2023/08/16 04:47:01;;;;;;;10.17;9.13;;;21.10;99.90;;;;;;5135614;27;20207;-78
2023/08/16 04:49:28;;;;;;;11.47;10.17;;;21.10;99.90;;;;;;5135977;27;20170;-80
2023/08/16 04:51:54;;;;;;;10.73;9.57;;;21.20;99.90;;;;;;5136129;27;20204;-77
2023/08/16 04:54:19;;;;;;;10.63;9.73;;;21.20;99.90;;;;;;5136162;27;20207;-77
2023/08/16 04:56:45;;;;;;;10.20;9.30;;;21.20;99.90;;;;;;5145924;27;20242;-78
2023/08/16 04:59:11;;;;;;;10.70;9.60;;;21.30;99.90;;;;;;5149026;27;20212;-78
2023/08/16 05:01:37;;;;;;;10.37;9.47;;;21.30;99.90;;;;;;5136451;27;20252;-80
2023/08/16 05:04:03;;;;;;;10.70;9.70;;;21.30;99.90;;;;;;5136368;27;20259;-80
2023/08/16 05:06:32;;;;;;;10.40;9.30;;;21.30;99.90;;;;;;5136153;27;20193;-77
2023/08/16 05:08:58;;;;;;;9.67;8.80;;;21.30;99.90;;;;;;5149727;27;20203;-78
2023/08/16 05:11:24;;;;;;;9.93;9.03;;;21.40;99.90;;;;;;5149014;27;20184;-75
2023/08/16 05:13:50;;;;;;;9.27;8.53;;;21.50;99.90;;;;;;5135964;27;20252;-77
2023/08/16 05:16:16;;;;;;;10.07;9.17;;;21.60;99.90;;;;;;5135119;27;20572;-78
2023/08/16 05:18:41;;;;;;;10.27;9.27;;;21.70;99.90;;;;;;5135834;27;20197;-76
2023/08/16 05:21:07;;;;;;;9.60;8.70;;;21.70;99.90;;;;;;5134106;27;20184;-77
2023/08/16 05:23:34;;;;;;;9.70;8.77;;;21.70;99.90;;;;;;5135276;27;20211;-77
2023/08/16 05:26:00;;;;;;;9.25;8.38;;;21.80;99.90;;;;;;5135327;27;20165;-77
2023/08/16 05:28:26;;;;;;;10.27;9.27;;;21.80;99.90;;;;;;5135544;27;20169;-78
2023/08/16 05:30:52;;;;;;;9.83;8.93;;;21.90;99.90;;;;;;5134108;27;20543;-77
2023/08/16 05:33:18;;;;;;;10.27;9.27;;;21.90;99.90;;;;;;5134029;27;20177;-77
2023/08/16 05:35:44;;;;;;;9.43;8.57;;;21.90;99.90;;;;;;5135573;27;20161;-77
2023/08/16 05:38:10;;;;;;;10.00;9.07;;;21.80;99.90;;;;;;5135335;27;20196;-78
2023/08/16 05:40:36;;;;;;;9.90;8.90;;;21.90;99.90;;;;;;5136696;27;20201;-79
2023/08/16 05:43:02;;;;;;;10.07;9.07;;;21.80;99.90;;;;;;5145083;27;20532;-75
2023/08/16 05:45:30;;;;;;;10.05;9.10;;;21.70;99.90;;;;;;5158892;27;20172;-77
2023/08/16 05:47:56;;;;;;;9.67;8.77;;;21.70;99.90;;;;;;5150854;27;20221;-76
2023/08/16 05:50:22;;;;;;;10.00;9.10;;;21.80;99.90;;;;;;5140183;27;20702;-76
2023/08/16 05:52:48;;;;;;;10.13;9.23;;;21.80;99.90;;;;;;5140386;27;20161;-75
2023/08/16 05:55:14;;;;;;;9.23;8.40;;;21.80;99.90;;;;;;5137196;27;20187;-79
2023/08/16 05:57:40;;;;;;;11.03;9.33;;;21.80;99.90;;;;;;5135736;27;20161;-78
2023/08/16 06:00:07;;;;;;;10.00;9.10;;;21.80;99.90;;;;;;5136153;27;20284;-78
2023/08/16 06:02:33;;;;;;;9.90;9.10;;;21.80;99.90;;;;;;5137107;27;20173;-77
2023/08/16 06:04:59;;;;;;;9.60;8.80;;;21.80;99.90;;;;;;5134182;27;20189;-76
2023/08/16 06:07:26;;;;;;;9.50;8.70;;;21.80;99.90;;;;;;5136456;27;20204;-76
2023/08/16 06:09:52;;;;;;;10.10;8.83;;;21.80;99.90;;;;;;5136089;27;20203;-78
2023/08/16 06:12:18;;;;;;;11.20;9.17;;;21.80;99.90;;;;;;5136139;27;20222;-78
2023/08/16 06:14:43;;;;;;;9.97;9.07;;;21.90;99.90;;;;;;5136616;27;20200;-78
2023/08/16 06:17:10;;;;;;;10.60;9.40;;;22.00;99.90;;;;;;5136132;27;20624;-78
2023/08/16 06:19:36;;;;;;;9.90;8.83;;;22.00;99.90;;;;;;5135467;27;20219;-78
2023/08/16 06:22:02;;;;;;;10.60;9.60;;;22.00;99.90;;;;;;5136016;27;20173;-78
2023/08/16 06:24:34;;;;;;;9.67;8.77;;;22.00;99.90;;;;;;5135563;27;20177;-75
2023/08/16 06:27:00;;;;;;;10.13;9.10;;;22.00;99.90;;;;;;5135332;27;20241;-78
2023/08/16 06:29:27;;;;;;;10.60;9.63;;;22.00;99.90;;;;;;5137434;27;20177;-79
2023/08/16 06:31:54;;;;;;;10.40;9.37;;;22.10;99.90;;;;;;5138615;27;20172;-78
2023/08/16 06:34:21;;;;;;;10.10;9.10;;;22.20;99.90;;;;;;5155356;27;20260;-76
2023/08/16 06:36:46;;;;;;;9.83;9.03;;;22.20;99.90;;;;;;5136231;27;20173;-79
2023/08/16 06:39:13;;;;;;;11.43;9.38;;;22.40;99.90;;;;;;5135248;27;20291;-79
2023/08/16 06:41:39;;;;;;;9.90;8.85;;;22.50;99.90;;;;;;5135007;27;20169;-78
2023/08/16 06:44:05;;;;;;;10.45;9.38;;;22.60;99.90;;;;;;5135412;27;20168;-79
2023/08/16 06:46:31;;;;;;;9.95;9.02;;;22.80;99.90;;;;;;5154856;27;20170;-76
2023/08/16 06:48:58;;;;;;;9.38;8.48;;;23.00;99.90;;;;;;5149103;27;20165;-78
2023/08/16 06:51:24;;;;;;;8.57;7.82;;;23.20;99.90;;;;;;5135904;27;20173;-77
2023/08/16 06:53:50;;;;;;;9.18;8.38;;;23.40;99.90;;;;;;5135350;28;20502;-77
2023/08/16 06:56:16;;;;;;;8.75;7.90;;;23.50;99.90;;;;;;5135059;27;20251;-79
2023/08/16 06:58:42;;;;;;;9.02;8.23;;;23.70;99.90;;;;;;5135761;27;20165;-78
2023/08/16 07:01:08;;;;;;;8.43;7.63;;;23.80;99.90;;;;;;5135421;27;20188;-78
2023/08/16 07:03:35;;;;;;;8.45;7.70;;;23.80;99.90;;;;;;5134950;27;20520;-78
2023/08/16 07:06:02;;;;;;;8.20;7.43;;;23.70;99.90;;;;;;5134389;27;20620;-77
2023/08/16 07:08:28;;;;;;;8.82;7.90;;;23.80;99.90;;;;;;5133271;28;20233;-78
2023/08/16 07:10:56;;;;;;;8.35;7.60;;;23.70;99.90;;;;;;5133772;28;20645;-78
2023/08/16 07:13:22;;;;;;;8.75;7.90;;;23.70;99.90;;;;;;5134467;28;20165;-79
2023/08/16 07:15:48;;;;;;;8.68;7.97;;;23.70;99.90;;;;;;5135221;28;20265;-78
2023/08/16 07:18:14;;;;;;;8.05;7.45;;;23.70;99.90;;;;;;5134339;27;20161;-77
2023/08/16 07:20:40;;;;;;;7.97;7.28;;;23.80;99.90;;;;;;5134253;27;20207;-77
2023/08/16 07:23:06;;;;;;;7.72;7.10;;;23.90;99.90;;;;;;5133066;28;20173;-78
2023/08/16 07:25:33;;;;;;;7.82;7.15;;;24.00;99.90;;;;;;5132657;28;20605;-78
2023/08/16 07:27:58;;;;;;;7.80;7.20;;;23.90;99.90;;;;;;5134113;27;20169;-78
2023/08/16 07:30:24;;;;;;;7.68;7.10;;;24.00;99.90;;;;;;5134597;27;20593;-77
2023/08/16 07:32:50;;;;;;;7.85;7.15;;;24.10;99.90;;;;;;5134513;27;20192;-76
2023/08/16 07:35:16;;;;;;;8.40;7.60;;;24.20;99.90;;;;;;5167068;27;20238;-77
2023/08/16 07:37:43;;;;;;;8.13;7.35;;;24.30;99.90;;;;;;5132497;28;20169;-76
2023/08/16 07:40:10;;;;;;;8.82;7.20;;;24.40;99.90;;;;;;5133610;27;20253;-75
2023/08/16 07:42:36;;;;;;;7.72;7.03;;;24.50;99.90;;;;;;5134607;27;20197;-77
2023/08/16 07:45:03;;;;;;;7.88;7.28;;;24.60;99.90;;;;;;5134882;27;20217;-76
2023/08/16 07:47:29;;;;;;;8.13;7.43;;;24.70;99.90;;;;;;5138940;27;20165;-79
2023/08/16 07:49:55;;;;;;;12.40;7.78;;;24.80;99.90;;;;;;5184076;27;20271;-78
2023/08/16 07:52:21;;;;;;;8.40;7.32;;;24.90;99.90;;;;;;5142023;27;20245;-77
2023/08/16 07:54:47;;;;;;;7.90;7.20;;;25.00;99.90;;;;;;5141891;27;20630;-77
2023/08/16 07:57:13;;;;;;;9.95;7.20;;;24.80;99.90;;;;;;5140906;27;20259;-78
2023/08/16 07:59:40;;;;;;;7.30;6.80;;;25.30;99.90;;;;;;5139304;27;20667;-79
2023/08/16 08:02:06;;;;;;;7.57;6.97;;;25.30;99.90;;;;;;5140288;27;20225;-78
2023/08/16 08:04:36;;;;;;;7.28;6.72;;;25.40;99.90;;;;;;5140812;27;20176;-78
2023/08/16 08:07:03;;;;;;;8.00;7.40;;;25.40;99.90;;;;;;5141822;27;20174;-80
2023/08/16 08:09:28;;;;;;;7.55;6.85;;;25.50;99.90;;;;;;5138638;27;20172;-80
2023/08/16 08:11:55;;;;;;;7.25;6.75;;;25.60;99.90;;;;;;5158422;27;20225;-77
2023/08/16 08:14:21;;;;;;;7.90;7.20;;;25.70;99.90;;;;;;5138219;27;20706;-78
2023/08/16 08:16:47;;;;;;;7.82;7.20;;;25.70;99.90;;;;;;5137111;27;20216;-78
2023/08/16 08:19:13;;;;;;;7.30;6.80;;;25.80;99.90;;;;;;5151028;27;20201;-79
2023/08/16 08:21:39;;;;;;;7.18;6.68;;;25.90;99.90;;;;;;5145716;27;20265;-79
2023/08/16 08:24:05;;;;;;;7.13;6.63;;;25.80;99.90;;;;;;5140813;27;20197;-78
2023/08/16 08:26:31;;;;;;;7.97;6.75;;;25.90;99.90;;;;;;5137662;27;20184;-79
2023/08/16 08:28:57;;;;;;;7.32;6.53;;;26.00;99.90;;;;;;5138376;27;20571;-76
2023/08/16 08:31:23;;;;;;;7.10;6.60;;;26.10;99.90;;;;;;5139703;27;20199;-78
2023/08/16 08:33:49;;;;;;;6.75;6.25;;;26.40;99.90;;;;;;5138343;27;20169;-77
2023/08/16 08:36:15;;;;;;;6.43;5.82;;;26.30;99.90;;;;;;5137370;27;20522;-77
2023/08/16 08:38:41;;;;;;;6.55;6.15;;;26.50;99.90;;;;;;5136990;27;20181;-79
2023/08/16 08:41:08;;;;;;;6.78;6.28;;;26.50;99.90;;;;;;5137014;27;20520;-77
2023/08/16 08:43:38;;;;;;;6.75;6.15;;;26.50;99.90;;;;;;5137224;27;20165;-77
2023/08/16 08:46:05;;;;;;;7.07;6.43;;;26.50;99.90;;;;;;5136807;27;20157;-77
2023/08/16 08:48:31;;;;;;;5.90;5.47;;;26.60;99.90;;;;;;5136789;27;20163;-78
2023/08/16 08:50:58;;;;;;;6.40;5.85;;;26.50;99.90;;;;;;5136769;27;20658;-78
2023/08/16 08:53:26;;;;;;;6.72;6.13;;;26.60;99.90;;;;;;5136901;27;20252;-77
2023/08/16 08:55:54;;;;;;;6.25;5.75;;;26.60;99.90;;;;;;5136424;27;20259;-78
2023/08/16 08:58:20;;;;;;;6.35;5.95;;;26.70;99.90;;;;;;5136458;27;20176;-80
2023/08/16 09:00:48;;;;;;;6.78;6.28;;;26.70;99.90;;;;;;5136658;27;20197;-80
2023/08/16 09:03:18;;;;;;;6.20;5.75;;;26.70;99.90;;;;;;5136482;27;20170;-79
2023/08/16 09:05:51;;;;;;;5.93;5.53;;;26.80;99.90;;;;;;5134900;27;20552;-76
2023/08/16 09:08:17;;;;;;;6.70;6.20;;;26.90;99.90;;;;;;5136373;27;20161;-76
2023/08/16 09:10:43;;;;;;;6.32;5.93;;;26.90;99.90;;;;;;5135814;27;20173;-79
2023/08/16 09:13:12;;;;;;;6.07;5.68;;;26.90;99.90;;;;;;5136359;27;20161;-79
2023/08/16 09:15:39;;;;;;;9.32;5.75;;;27.00;99.90;;;;;;5139188;27;20195;-78
2023/08/16 09:18:20;;;;;;;5.80;5.40;;;27.00;99.90;;;;;;5143227;27;20168;-77
2023/08/16 09:20:47;;;;;;;6.28;5.78;;;27.00;99.90;;;;;;5136156;27;20193;-79
2023/08/16 09:23:13;;;;;;;5.63;5.22;;;27.10;99.90;;;;;;5137189;27;20645;-78
2023/08/16 09:25:39;;;;;;;5.80;5.40;;;27.10;99.90;;;;;;5147978;27;20166;-78
2023/08/16 09:28:12;;;;;;;5.82;5.43;;;27.20;99.90;;;;;;5154288;27;20164;-78
2023/08/16 09:30:38;;;;;;;5.95;5.55;;;27.20;99.90;;;;;;5144793;27;20165;-79
2023/08/16 09:33:05;;;;;;;6.57;6.03;;;27.30;99.90;;;;;;5147604;27;20221;-77
2023/08/16 09:35:33;;;;;;;5.68;5.20;;;27.30;99.90;;;;;;5145685;27;20165;-77
2023/08/16 09:38:00;;;;;;;6.50;5.07;;;27.80;99.90;;;;;;5136905;27;20173;-78
2023/08/16 09:40:26;;;;;;;5.93;5.53;;;27.40;99.90;;;;;;5135668;27;20197;-78
2023/08/16 09:43:01;;;;;;;5.72;5.22;;;27.50;99.90;;;;;;5135390;27;20157;-78
2023/08/16 09:45:30;;;;;;;5.60;5.20;;;27.60;99.90;;;;;;5134506;27;20204;-77
2023/08/16 09:47:56;;;;;;;5.45;4.97;;;27.70;99.90;;;;;;5144420;27;20176;-80
2023/08/16 09:50:24;;;;;;;6.30;5.88;;;27.80;99.90;;;;;;5142786;27;20161;-79
2023/08/16 09:52:50;;;;;;;5.50;4.93;;;28.00;99.90;;;;;;5135337;27;20173;-77
2023/08/16 09:55:26;;;;;;;5.53;5.13;;;28.00;99.90;;;;;;5136663;27;20161;-78
2023/08/16 09:57:53;;;;;;;5.57;5.18;;;28.10;99.90;;;;;;5135396;27;20161;-80
2023/08/16 10:00:19;;;;;;;5.50;5.20;;;28.20;99.90;;;;;;5157886;27;20235;-79
2023/08/16 10:02:48;;;;;;;5.07;4.78;;;28.20;99.90;;;;;;5135256;27;20180;-77
2023/08/16 10:05:16;;;;;;;5.70;5.25;;;28.20;99.90;;;;;;5135106;27;20695;-77
2023/08/16 10:07:42;;;;;;;5.53;5.13;;;28.30;99.90;;;;;;5134882;27;20201;-78
2023/08/16 10:10:13;;;;;;;5.60;5.00;;;28.20;99.90;;;;;;5133658;27;20261;-78
2023/08/16 10:12:39;;;;;;;5.60;5.30;;;28.30;99.90;;;;;;5134950;27;20160;-79
2023/08/16 10:15:05;;;;;;;5.63;5.22;;;28.50;99.90;;;;;;5135535;27;20183;-80
2023/08/16 10:17:32;;;;;;;5.72;5.22;;;28.40;99.90;;;;;;5136014;27;20165;-78
2023/08/16 10:20:07;;;;;;;5.47;5.07;;;28.40;99.90;;;;;;5139086;27;20223;-79
2023/08/16 10:22:42;;;;;;;5.35;5.05;;;28.40;99.90;;;;;;5137656;27;20153;-77
2023/08/16 10:25:12;;;;;;;5.65;5.30;;;28.40;99.90;;;;;;5135737;27;20189;-76
2023/08/16 10:27:43;;;;;;;5.78;5.10;;;28.50;99.90;;;;;;5133456;27;20267;-80
2023/08/16 10:30:17;;;;;;;5.50;5.20;;;28.60;99.90;;;;;;5135688;27;20158;-77
2023/08/16 10:32:44;;;;;;;5.60;5.10;;;28.70;99.90;;;;;;5138054;27;20160;-79
2023/08/16 10:35:12;;;;;;;5.65;5.25;;;28.70;99.90;;;;;;5135598;27;20639;-79
2023/08/16 10:37:38;;;;;;;6.03;5.63;;;28.80;99.40;;;;;;5138516;27;20184;-79
2023/08/16 10:40:15;;;;;;;5.68;5.28;;;28.70;99.80;;;;;;5135999;27;20702;-77
2023/08/16 10:43:05;;;;;;;5.38;5.03;;;28.70;99.80;;;;;;5134518;27;20196;-79
2023/08/16 10:45:36;;;;;;;7.85;5.45;;;28.70;99.90;;;;;;5128196;28;20181;-79
2023/08/16 10:48:15;;;;;;;5.60;5.20;;;28.80;99.90;;;;;;5138423;27;20189;-80
2023/08/16 10:50:42;;;;;;;6.25;5.85;;;28.90;99.80;;;;;;5150853;27;20171;-77
2023/08/16 10:53:09;;;;;;;5.78;5.38;;;29.10;99.90;;;;;;5158121;27;20165;-80
2023/08/16 10:55:35;;;;;;;7.57;6.97;;;29.20;99.90;;;;;;5158103;27;20931;-77
2023/08/16 10:58:02;;;;;;;6.05;5.50;;;29.10;99.70;;;;;;5157305;27;20179;-77
2023/08/16 11:00:32;;;;;;;6.38;5.53;;;29.20;99.50;;;;;;5158205;27;20200;-76
2023/08/16 11:03:01;;;;;;;6.00;5.60;;;29.30;99.90;;;;;;5158303;27;20210;-79
2023/08/16 11:05:30;;;;;;;5.97;5.57;;;29.40;99.90;;;;;;5158409;27;20249;-82
2023/08/16 11:07:57;;;;;;;6.07;5.60;;;29.40;99.90;;;;;;5159367;27;20158;-80
2023/08/16 11:10:33;;;;;;;6.00;5.60;;;29.40;99.90;;;;;;5158489;27;20176;-79
2023/08/16 11:13:00;;;;;;;6.07;5.55;;;29.40;99.90;;;;;;5136079;27;20153;-77
2023/08/16 11:15:26;;;;;;;5.90;5.43;;;29.30;98.90;;;;;;5136127;27;20175;-77
2023/08/16 11:17:55;;;;;;;6.32;5.72;;;29.20;99.20;;;;;;5144646;27;20201;-76
2023/08/16 11:20:21;;;;;;;5.65;5.32;;;29.10;99.60;;;;;;5138587;27;20193;-79
2023/08/16 11:22:47;;;;;;;5.97;5.57;;;28.80;99.90;;;;;;5138927;27;20180;-80
2023/08/16 11:25:13;;;;;;;6.72;5.78;;;28.80;99.90;;;;;;5154114;27;20170;-78
2023/08/16 11:27:38;;;;;;;6.00;5.50;;;28.70;99.90;;;;;;5144344;27;20250;-79
2023/08/16 11:30:05;;;;;;;6.20;5.75;;;28.50;99.90;;;;;;5138055;27;20650;-80
2023/08/16 11:32:38;;;;;;;5.70;5.30;;;28.50;99.90;;;;;;5137939;27;20161;-79
2023/08/16 11:35:13;;;;;;;5.72;5.38;;;28.50;99.90;;;;;;5137319;27;20637;-79
2023/08/16 11:37:41;;;;;;;6.47;5.97;;;28.40;99.90;;;;;;5161349;27;20159;-79
2023/08/16 11:40:09;;;;;;;6.05;5.55;;;28.40;99.90;;;;;;5144906;27;20193;-77
2023/08/16 11:42:35;;;;;;;5.68;5.38;;;28.40;99.90;;;;;;5137716;27;20170;-76
2023/08/16 11:45:03;;;;;;;6.38;5.97;;;28.40;99.90;;;;;;5138841;27;20242;-78
2023/08/16 11:47:29;;;;;;;5.78;5.38;;;28.40;99.90;;;;;;5137728;27;20191;-78
2023/08/16 11:49:55;;;;;;;5.53;5.20;;;28.50;99.90;;;;;;5137297;27;20205;-78
2023/08/16 11:52:25;;;;;;;5.93;5.53;;;28.60;99.90;;;;;;5137344;27;20180;-78
2023/08/16 11:55:05;;;;;;;5.85;5.45;;;28.70;99.90;;;;;;5137099;27;20169;-77
2023/08/16 11:57:43;;;;;;;6.57;5.97;;;28.80;99.90;;;;;;5137847;27;20173;-76
2023/08/16 12:00:10;;;;;;;5.90;5.40;;;28.90;99.90;;;;;;5140653;27;20205;-77
2023/08/16 12:02:37;;;;;;;5.80;5.30;;;28.90;99.60;;;;;;5140032;27;20718;-78
2023/08/16 12:05:09;;;;;;;5.82;5.38;;;29.00;98.70;;;;;;5137247;27;20169;-78
2023/08/16 12:07:48;;;;;;;6.40;5.78;;;29.00;98.80;;;;;;5136594;27;20249;-75
2023/08/16 12:10:25;;;;;;;5.72;5.43;;;29.10;99.10;;;;;;5138131;27;20231;-77
2023/08/16 12:12:52;;;;;;;5.97;5.47;;;29.20;99.80;;;;;;5140883;27;20212;-78
2023/08/16 12:15:26;;;;;;;6.30;5.78;;;29.20;99.90;;;;;;5137106;27;20181;-77
2023/08/16 12:17:53;;;;;;;8.10;7.50;;;29.30;99.90;;;;;;5137717;27;20310;-78
2023/08/16 12:20:19;;;;;;;6.40;5.93;;;29.20;99.90;;;;;;5137680;27;20201;-80
2023/08/16 12:22:45;;;;;;;7.03;5.93;;;29.20;99.90;;;;;;5137244;27;20166;-77
2023/08/16 12:25:11;;;;;;;6.60;6.00;;;29.30;99.90;;;;;;5137393;27;20177;-78
2023/08/16 12:27:38;;;;;;;5.93;5.38;;;29.40;99.90;;;;;;5137084;27;20181;-78
2023/08/16 12:30:05;;;;;;;5.78;5.38;;;29.40;99.40;;;;;;5139874;27;20277;-78
2023/08/16 12:32:31;;;;;;;6.53;6.13;;;29.40;99.50;;;;;;5138980;27;20176;-80
2023/08/16 12:34:57;;;;;;;6.10;5.60;;;29.40;99.60;;;;;;5136413;27;20176;-78
2023/08/16 12:37:24;;;;;;;6.20;5.80;;;29.30;99.60;;;;;;5135245;27;20174;-77
2023/08/16 12:39:54;;;;;;;5.78;5.35;;;29.40;99.00;;;;;;5136620;27;20243;-78
2023/08/16 12:42:46;;;;;;;5.72;5.43;;;29.30;98.60;;;;;;5118092;27;20268;-79
2023/08/16 12:45:12;;;;;;;6.00;5.50;;;29.30;99.10;;;;;;5136143;27;20172;-78